Time;durP1;ratioP1;P1;durP2;ratioP2;P2;SDS_P1;SDS_P2;PMS_P1;PMS_P2;Temp;Humidity;BMP_temperature;BMP_pressure;BME280_temperature;BME280_humidity;BME280_pressure;Samples;Min_cycle;Max_cycle;Signal;HPM_P1;HPM_P2
2022/03/30 00:02:23;;;;;;;18.63;12.67;;;;;;;9.30;46.68;94700.38;1796275;80;21458;-64
2022/03/30 00:04:50;;;;;;;17.10;13.20;;;;;;;9.30;46.82;94699.06;1796369;80;21033;-64
2022/03/30 00:07:17;;;;;;;16.63;12.20;;;;;;;9.15;47.51;94708.70;1795993;80;20989;-64
2022/03/30 00:09:44;;;;;;;19.40;12.27;;;;;;;9.09;46.99;94708.84;1796012;80;21025;-64
2022/03/30 00:12:11;;;;;;;18.17;13.00;;;;;;;8.98;47.50;94703.02;1796158;79;20958;-64
2022/03/30 00:14:37;;;;;;;17.07;12.13;;;;;;;8.86;47.71;94704.20;1796229;80;21499;-64
2022/03/30 00:17:05;;;;;;;17.33;11.80;;;;;;;8.90;47.70;94698.42;1796360;79;21013;-63
2022/03/30 00:19:32;;;;;;;22.17;13.97;;;;;;;8.78;48.73;94696.52;1796280;80;20966;-64
2022/03/30 00:21:58;;;;;;;20.83;13.50;;;;;;;8.70;47.68;94681.84;1796421;80;21029;-64
2022/03/30 00:24:28;;;;;;;20.70;12.17;;;;;;;8.73;48.29;94689.19;1796561;80;20989;-63
2022/03/30 00:26:54;;;;;;;22.67;12.10;;;;;;;8.62;49.46;94697.37;1796381;80;21052;-64
2022/03/30 00:29:20;;;;;;;18.80;12.33;;;;;;;8.54;49.10;94705.02;1796520;80;20993;-64
2022/03/30 00:31:47;;;;;;;21.13;11.63;;;;;;;8.46;49.66;94710.47;1792722;80;21500;-64
2022/03/30 00:34:13;;;;;;;17.27;11.63;;;;;;;8.36;50.00;94707.62;1787383;80;21597;-64
2022/03/30 00:36:40;;;;;;;18.37;11.63;;;;;;;8.28;50.43;94703.86;1787781;80;21058;-64
2022/03/30 00:39:06;;;;;;;17.03;11.10;;;;;;;8.23;49.93;94705.28;1787324;80;20978;-64
2022/03/30 00:41:33;;;;;;;17.00;11.50;;;;;;;8.14;52.31;94705.94;1787490;80;21012;-64
2022/03/30 00:44:09;;;;;;;22.23;12.53;;;;;;;8.05;50.51;94699.61;1787346;80;20986;-64
2022/03/30 00:46:36;;;;;;;18.57;11.13;;;;;;;7.95;51.68;94702.89;1787788;80;20970;-64
2022/03/30 00:49:08;;;;;;;17.20;11.70;;;;;;;7.93;51.97;94697.66;1787492;80;21009;-64
2022/03/30 00:51:32;;;;;;;18.20;11.00;;;;;;;7.84;52.38;94698.31;1786182;80;21034;-63
2022/03/30 00:53:59;;;;;;;17.47;11.40;;;;;;;7.74;52.32;94694.59;1787713;80;20957;-63
2022/03/30 00:56:32;;;;;;;16.03;10.73;;;;;;;7.74;51.55;94688.48;1787515;80;21455;-63
2022/03/30 00:59:02;;;;;;;21.63;12.00;;;;;;;7.71;52.31;94677.61;1787719;80;21472;-63
2022/03/30 01:01:28;;;;;;;20.20;11.20;;;;;;;7.69;53.83;94685.10;1787640;80;21005;-63
2022/03/30 01:03:55;;;;;;;17.77;10.77;;;;;;;7.68;52.98;94679.41;1787640;80;20978;-63
2022/03/30 01:06:22;;;;;;;14.47;10.33;;;;;;;7.61;54.21;94673.45;1787673;80;20974;-63
2022/03/30 01:08:50;;;;;;;12.77;9.57;;;;;;;7.54;53.81;94680.59;1787510;80;20986;-64
2022/03/30 01:11:16;;;;;;;14.93;10.03;;;;;;;7.54;53.36;94684.98;1787602;80;21005;-64
2022/03/30 01:13:43;;;;;;;18.47;10.70;;;;;;;7.52;53.72;94690.70;1787699;80;21021;-64
2022/03/30 01:16:10;;;;;;;17.83;10.53;;;;;;;7.51;53.96;94688.95;1787518;80;21037;-64
2022/03/30 01:18:40;;;;;;;21.93;11.40;;;;;;;7.54;53.26;94682.36;1787775;80;21025;-64
2022/03/30 01:21:11;;;;;;;17.47;11.13;;;;;;;7.55;53.43;94675.74;1787470;80;21037;-64
2022/03/30 01:23:37;;;;;;;19.63;9.70;;;;;;;7.59;52.93;94670.00;1787506;80;21475;-64
2022/03/30 01:26:05;;;;;;;20.17;11.43;;;;;;;7.60;53.36;94674.34;1787671;80;21040;-64
2022/03/30 01:28:33;;;;;;;15.00;10.50;;;;;;;7.58;54.08;94673.50;1787660;80;20985;-64
2022/03/30 01:33:46;;;;;;;16.10;9.80;;;;;;;7.54;55.27;94669.23;1787296;80;20997;-63
2022/03/30 01:36:18;;;;;;;22.30;11.03;;;;;;;7.54;54.96;94670.09;1787547;80;21045;-63
2022/03/30 01:38:45;;;;;;;15.97;10.37;;;;;;;7.59;54.30;94669.54;1787682;80;21014;-63
2022/03/30 01:41:12;;;;;;;15.00;9.43;;;;;;;7.61;54.54;94663.38;1787294;80;21061;-63
2022/03/30 01:43:39;;;;;;;15.77;10.20;;;;;;;7.60;54.86;94667.77;1787759;80;21458;-64
2022/03/30 01:46:05;;;;;;;24.33;11.57;;;;;;;7.61;54.67;94668.63;1787657;80;21456;-63
2022/03/30 01:48:32;;;;;;;16.00;11.40;;;;;;;7.57;54.45;94666.53;1787664;80;20977;-63
2022/03/30 01:51:02;;;;;;;17.03;10.57;;;;;;;7.58;54.38;94663.00;1787448;80;21002;-64
2022/03/30 01:53:28;;;;;;;17.40;11.77;;;;;;;7.59;53.77;94667.38;1787591;80;21444;-63
2022/03/30 01:55:55;;;;;;;44.07;13.73;;;;;;;7.58;53.36;94660.38;1787491;80;21511;-64
2022/03/30 01:58:22;;;;;;;17.43;10.50;;;;;;;7.55;53.37;94665.70;1787413;80;21013;-64
2022/03/30 02:00:49;;;;;;;18.80;11.53;;;;;;;7.49;54.43;94661.91;1787599;80;20990;-64
2022/03/30 02:03:16;;;;;;;18.93;11.47;;;;;;;7.37;55.45;94665.19;1787712;80;21006;-64
2022/03/30 02:05:42;;;;;;;22.17;12.03;;;;;;;7.31;55.09;94664.02;1787895;80;21041;-64
2022/03/30 02:08:09;;;;;;;17.20;11.80;;;;;;;7.25;54.41;94655.41;1787427;80;21002;-64
2022/03/30 02:10:38;;;;;;;21.43;11.33;;;;;;;7.22;54.10;94664.20;1788035;80;20954;-64
2022/03/30 02:13:05;;;;;;;18.90;12.17;;;;;;;7.16;54.40;94656.47;1787652;80;21021;-64
2022/03/30 02:15:32;;;;;;;17.83;11.27;;;;;;;7.08;54.61;94657.94;1787827;80;21040;-63
2022/03/30 02:17:59;;;;;;;18.80;11.87;;;;;;;7.01;54.53;94657.64;1787835;80;20998;-63
2022/03/30 02:20:26;;;;;;;18.63;11.70;;;;;;;6.86;55.03;94658.80;1787286;80;21529;-63
2022/03/30 02:22:53;;;;;;;23.50;12.90;;;;;;;6.78;55.26;94663.75;1787813;80;21496;-63
2022/03/30 02:25:19;;;;;;;24.77;12.87;;;;;;;6.65;55.99;94651.33;1787480;80;20977;-63
2022/03/30 02:27:46;;;;;;;22.03;11.90;;;;;;;6.48;56.17;94648.58;1787301;80;21045;-63
2022/03/30 02:30:13;;;;;;;18.97;12.60;;;;;;;6.36;56.80;94658.42;1787805;80;21041;-63
2022/03/30 02:32:40;;;;;;;23.50;11.97;;;;;;;6.24;57.21;94667.34;1787822;80;20990;-64
2022/03/30 02:35:09;;;;;;;23.90;11.50;;;;;;;6.11;57.94;94662.75;1787465;80;21424;-64
2022/03/30 02:37:35;;;;;;;21.70;13.87;;;;;;;6.04;58.36;94659.81;1787746;80;20997;-64
2022/03/30 02:40:04;;;;;;;18.50;12.13;;;;;;;5.94;58.16;94661.70;1787396;80;21009;-63
2022/03/30 02:42:31;;;;;;;19.77;12.43;;;;;;;5.83;58.49;94661.84;1787757;80;21468;-63
2022/03/30 02:44:57;;;;;;;19.47;13.17;;;;;;;5.67;59.32;94660.36;1787424;80;21006;-64
2022/03/30 02:50:09;;;;;;;20.50;12.23;;;;;;;5.53;59.10;94660.55;1787714;80;20994;-66
2022/03/30 02:52:36;;;;;;;20.30;11.60;;;;;;;5.43;60.31;94658.94;1787818;80;21479;-64
2022/03/30 02:55:04;;;;;;;22.67;13.77;;;;;;;5.33;60.05;94665.19;1787681;80;21066;-63
2022/03/30 02:57:33;;;;;;;25.27;13.67;;;;;;;5.25;60.00;94670.97;1787749;80;21455;-63
2022/03/30 03:00:00;;;;;;;23.67;13.03;;;;;;;5.18;60.37;94670.17;1787458;80;21001;-63
2022/03/30 03:02:27;;;;;;;17.00;12.03;;;;;;;5.12;60.73;94669.81;1787945;80;21009;-63
2022/03/30 03:04:53;;;;;;;19.73;12.33;;;;;;;5.03;61.39;94682.98;1787665;80;21491;-63
2022/03/30 03:07:20;;;;;;;31.73;16.40;;;;;;;5.00;62.72;94677.80;1787746;80;21443;-63
2022/03/30 03:09:46;;;;;;;53.30;25.33;;;;;;;4.99;61.05;94675.64;1787879;80;20993;-63
2022/03/30 03:12:13;;;;;;;84.60;36.73;;;;;;;5.01;62.03;94671.67;1787843;80;20998;-64
2022/03/30 03:14:39;;;;;;;47.07;24.57;;;;;;;5.06;61.70;94666.39;1787659;80;21048;-64
2022/03/30 03:17:06;;;;;;;54.50;24.50;;;;;;;5.12;62.16;94671.13;1788101;80;21025;-64
2022/03/30 03:19:33;;;;;;;35.13;19.10;;;;;;;5.18;61.19;94672.34;1787347;80;21002;-64
2022/03/30 03:22:00;;;;;;;54.97;28.80;;;;;;;5.29;60.65;94668.30;1787745;80;20974;-64
2022/03/30 03:24:27;;;;;;;48.00;24.40;;;;;;;5.46;60.10;94671.12;1787973;80;20989;-64
2022/03/30 03:26:53;;;;;;;57.87;27.23;;;;;;;5.52;59.82;94676.25;1787689;80;20986;-64
2022/03/30 03:29:20;;;;;;;34.00;18.67;;;;;;;5.63;59.56;94673.91;1787583;80;20982;-64
2022/03/30 03:31:47;;;;;;;35.63;19.80;;;;;;;5.84;58.44;94668.80;1787693;80;20986;-64
2022/03/30 03:34:13;;;;;;;48.73;20.63;;;;;;;6.04;58.13;94675.52;1787330;80;21012;-64
2022/03/30 03:36:41;;;;;;;41.80;21.53;;;;;;;6.15;57.90;94676.23;1787569;80;21043;-63
2022/03/30 03:39:07;;;;;;;38.80;18.97;;;;;;;6.15;57.34;94674.03;1787717;80;21045;-63
2022/03/30 03:41:34;;;;;;;35.73;18.90;;;;;;;6.33;56.89;94666.34;1787964;80;20974;-63
2022/03/30 03:44:01;;;;;;;27.67;16.70;;;;;;;6.40;56.42;94665.31;1787830;80;21029;-63
2022/03/30 03:46:27;;;;;;;31.27;17.23;;;;;;;6.37;56.77;94662.75;1787523;80;21010;-63
2022/03/30 03:48:55;;;;;;;35.27;18.80;;;;;;;6.29;57.03;94661.58;1787495;80;20986;-64
2022/03/30 03:51:22;;;;;;;44.60;22.30;;;;;;;6.24;56.84;94672.13;1787833;80;21032;-63
2022/03/30 03:53:48;;;;;;;69.10;33.70;;;;;;;6.17;57.23;94665.25;1787365;80;21040;-64
2022/03/30 03:56:15;;;;;;;46.57;24.53;;;;;;;6.09;57.41;94666.28;1787365;80;21487;-65
2022/03/30 03:58:41;;;;;;;49.57;22.73;;;;;;;6.04;58.15;94665.91;1787776;80;20981;-65
2022/03/30 04:01:08;;;;;;;25.67;14.20;;;;;;;5.97;58.85;94669.53;1787743;80;21492;-65
2022/03/30 04:03:35;;;;;;;28.53;15.83;;;;;;;5.89;58.39;94675.73;1787723;80;21013;-66
2022/03/30 04:06:01;;;;;;;34.20;19.57;;;;;;;5.84;58.36;94662.70;1787430;80;20974;-66
2022/03/30 04:08:28;;;;;;;23.87;14.77;;;;;;;5.78;59.49;94669.36;1757255;80;21022;-66
2022/03/30 04:10:54;;;;;;;34.43;12.67;;;;;;;5.74;59.63;94673.75;1787656;80;21001;-66
2022/03/30 04:13:21;;;;;;;15.30;10.00;;;;;;;5.64;60.86;94674.36;1787823;80;21021;-65
2022/03/30 04:15:47;;;;;;;24.23;11.63;;;;;;;5.56;61.08;94674.88;1787750;80;20981;-65
2022/03/30 04:18:14;;;;;;;27.23;16.80;;;;;;;5.49;61.38;94673.23;1787772;80;21014;-66
2022/03/30 04:20:43;;;;;;;36.83;21.50;;;;;;;5.43;61.18;94668.10;1787694;80;21037;-65
2022/03/30 04:23:11;;;;;;;42.40;21.60;;;;;;;5.36;61.64;94669.92;1787632;80;21033;-65
2022/03/30 04:25:38;;;;;;;44.23;25.83;;;;;;;5.32;61.84;94663.47;1787806;80;20990;-65
2022/03/30 04:28:05;;;;;;;44.80;25.03;;;;;;;5.28;61.22;94663.94;1787347;80;21064;-65
2022/03/30 04:30:31;;;;;;;38.77;22.17;;;;;;;5.24;61.93;94666.19;1787675;80;21029;-65
2022/03/30 04:32:58;;;;;;;19.87;12.00;;;;;;;5.18;62.12;94660.57;1787252;80;21027;-66
2022/03/30 04:35:25;;;;;;;20.57;12.67;;;;;;;5.13;62.12;94661.07;1787202;80;21025;-65
2022/03/30 04:37:54;;;;;;;15.67;11.00;;;;;;;5.10;62.50;94667.66;1787305;80;21041;-66
2022/03/30 04:40:23;;;;;;;40.50;18.73;;;;;;;5.09;63.04;94669.86;1787623;80;21006;-66
2022/03/30 04:42:51;;;;;;;43.23;22.60;;;;;;;5.11;62.62;94663.28;1787727;80;21045;-66
2022/03/30 04:45:19;;;;;;;23.87;14.10;;;;;;;5.17;61.91;94666.70;1787296;80;21009;-66
2022/03/30 04:47:46;;;;;;;43.80;22.30;;;;;;;5.24;62.13;94667.91;1787581;80;20990;-65
2022/03/30 04:50:13;;;;;;;69.83;30.63;;;;;;;5.38;60.89;94665.54;1787430;80;20950;-65
2022/03/30 04:52:41;;;;;;;43.27;20.03;;;;;;;5.77;59.20;94671.53;1787697;80;21037;-66
2022/03/30 04:55:10;;;;;;;45.23;23.60;;;;;;;5.94;60.22;94675.25;1787539;80;21029;-66
2022/03/30 04:57:40;;;;;;;63.20;32.23;;;;;;;6.13;57.28;94664.91;1787616;80;21033;-65
2022/03/30 05:00:12;;;;;;;68.67;33.47;;;;;;;6.33;57.42;94665.03;1787673;80;21005;-65
2022/03/30 05:02:40;;;;;;;41.20;22.37;;;;;;;6.38;57.27;94661.88;1787507;80;21017;-68
2022/03/30 05:05:09;;;;;;;45.80;27.43;;;;;;;6.61;55.33;94658.84;1787501;80;20994;-66
2022/03/30 05:07:37;;;;;;;43.43;24.10;;;;;;;6.79;55.35;94669.44;1787511;80;21056;-63
2022/03/30 05:10:11;;;;;;;22.73;13.70;;;;;;;6.80;55.75;94669.84;1786713;80;21017;-65
2022/03/30 05:12:38;;;;;;;38.73;20.15;;;;;;;7.18;53.10;94671.70;1784903;80;21084;-70
2022/03/30 05:15:07;;;;;;;35.33;21.03;;;;;;;7.24;53.72;94670.74;1785741;80;21478;-70
2022/03/30 05:17:34;;;;;;;33.63;20.03;;;;;;;7.20;54.32;94676.94;1785972;80;21032;-63
2022/03/30 05:20:00;;;;;;;31.80;19.50;;;;;;;7.11;54.85;94678.00;1785666;80;21059;-65
2022/03/30 05:22:27;;;;;;;29.77;15.87;;;;;;;7.06;55.32;94687.72;1784535;80;21060;-65
2022/03/30 05:24:54;;;;;;;34.73;18.50;;;;;;;7.03;55.55;94687.75;1786171;80;21021;-67
2022/03/30 05:27:21;;;;;;;64.37;30.13;;;;;;;6.94;56.48;94695.36;1786313;80;21009;-66
2022/03/30 05:29:47;;;;;;;73.00;34.43;;;;;;;6.84;56.72;94688.56;1786808;80;21480;-64
2022/03/30 05:32:14;;;;;;;95.50;41.47;;;;;;;6.77;56.73;94694.36;1786701;80;21047;-65
2022/03/30 05:34:41;;;;;;;81.67;38.20;;;;;;;6.71;56.99;94690.55;1786702;80;21583;-63
2022/03/30 05:37:09;;;;;;;68.43;35.10;;;;;;;6.66;57.43;94693.25;1787556;80;20974;-64
2022/03/30 05:39:39;;;;;;;72.17;35.93;;;;;;;6.60;58.09;94696.00;1787703;80;20997;-65
2022/03/30 05:42:05;;;;;;;43.17;24.70;;;;;;;6.62;57.39;94685.47;1787101;80;20990;-65
2022/03/30 05:44:32;;;;;;;50.20;26.43;;;;;;;6.64;57.25;94691.09;1787671;80;21017;-64
2022/03/30 05:46:59;;;;;;;47.90;27.10;;;;;;;6.68;57.47;94698.02;1787401;80;20974;-65
2022/03/30 05:49:25;;;;;;;53.50;26.93;;;;;;;6.71;57.35;94697.11;1787034;80;21021;-65
2022/03/30 05:51:52;;;;;;;52.40;28.37;;;;;;;6.74;57.90;94693.56;1787667;80;20977;-65
2022/03/30 05:54:18;;;;;;;179.00;59.10;;;;;;;6.75;58.42;94697.45;1787859;80;20970;-65
2022/03/30 05:57:00;;;;;;;110.83;44.03;;;;;;;6.76;57.99;94697.03;1787285;80;21016;-64
2022/03/30 05:59:37;;;;;;;103.60;45.50;;;;;;;6.76;58.42;94698.34;1787523;80;20978;-65
2022/03/30 06:02:08;;;;;;;131.30;55.70;;;;;;;6.80;58.06;94694.75;1787591;80;20969;-65
2022/03/30 06:04:35;;;;;;;139.37;58.63;;;;;;;6.83;58.21;94694.27;1787489;80;21005;-70
2022/03/30 06:07:03;;;;;;;158.00;59.23;;;;;;;6.94;58.54;94697.98;1787278;80;21081;-65
2022/03/30 06:09:33;;;;;;;123.50;52.60;;;;;;;7.07;58.58;94691.60;1787541;80;21471;-64
2022/03/30 06:11:58;;;;;;;101.67;49.13;;;;;;;7.21;58.17;94692.66;1786899;80;21009;-65
2022/03/30 06:14:25;;;;;;;86.97;42.17;;;;;;;7.40;58.18;94681.78;1787209;80;21068;-65
2022/03/30 06:16:52;;;;;;;90.90;40.07;;;;;;;7.59;57.84;94680.04;1787657;80;21029;-66
2022/03/30 06:19:19;;;;;;;58.43;31.30;;;;;;;7.82;57.31;94672.11;1787530;80;20998;-67
2022/03/30 06:21:46;;;;;;;47.73;25.77;;;;;;;8.06;56.79;94675.91;1787259;80;21514;-67
2022/03/30 06:24:13;;;;;;;44.00;21.90;;;;;;;8.30;56.23;94669.22;1787293;80;20998;-67
2022/03/30 06:26:42;;;;;;;26.17;18.10;;;;;;;8.54;55.87;94663.84;1786975;80;20980;-68
2022/03/30 06:29:09;;;;;;;30.77;18.30;;;;;;;8.77;55.56;94668.92;1792169;80;21508;-69
2022/03/30 06:31:36;;;;;;;28.53;18.13;;;;;;;8.99;55.12;94663.95;1794976;80;20988;-71
2022/03/30 06:34:03;;;;;;;24.30;15.20;;;;;;;9.19;54.97;94664.27;1794191;80;21558;-68
2022/03/30 06:36:33;;;;;;;22.80;13.67;;;;;;;9.35;53.28;94655.50;1794874;80;20977;-68
2022/03/30 06:38:59;;;;;;;23.00;13.73;;;;;;;9.53;49.16;94661.53;1794750;80;21009;-68
2022/03/30 06:41:26;;;;;;;16.97;11.37;;;;;;;9.71;49.50;94665.84;1794553;80;21048;-68
2022/03/30 06:43:53;;;;;;;14.20;9.57;;;;;;;9.86;48.17;94662.75;1794211;80;21437;-69
2022/03/30 06:46:20;;;;;;;23.10;13.93;;;;;;;9.97;46.47;94663.26;1793790;80;21008;-71
2022/03/30 06:48:47;;;;;;;15.37;11.80;;;;;;;10.11;44.89;94664.63;1794370;80;21044;-69
2022/03/30 06:51:15;;;;;;;17.73;10.83;;;;;;;10.21;45.33;94665.20;1794263;80;21017;-69
2022/03/30 06:53:43;;;;;;;20.03;11.40;;;;;;;10.28;44.86;94661.45;1795439;80;21533;-67
2022/03/30 06:56:10;;;;;;;19.07;12.10;;;;;;;10.36;43.75;94656.36;1794963;80;20956;-69
2022/03/30 06:58:38;;;;;;;14.40;9.97;;;;;;;10.44;44.17;94660.06;1796137;80;20998;-67
2022/03/30 07:01:05;;;;;;;19.73;10.50;;;;;;;10.58;42.79;94652.56;1793214;80;21090;-69
2022/03/30 07:03:31;;;;;;;21.53;10.23;;;;;;;10.76;42.88;94656.78;1788920;80;21468;-70
2022/03/30 07:05:58;;;;;;;18.93;11.77;;;;;;;10.89;42.85;94651.97;1788450;80;21006;-69
2022/03/30 07:11:10;;;;;;;18.90;10.87;;;;;;;11.38;41.23;94639.16;1788546;80;21071;-69
2022/03/30 07:13:37;;;;;;;18.93;11.57;;;;;;;11.68;40.81;94646.41;1788621;80;21488;-69
2022/03/30 07:16:04;;;;;;;18.10;10.73;;;;;;;11.89;38.23;94638.59;1788533;80;21058;-69
2022/03/30 07:18:31;;;;;;;16.87;11.00;;;;;;;12.08;39.82;94642.25;1788776;80;21035;-69
2022/03/30 07:20:58;;;;;;;21.07;12.30;;;;;;;12.25;38.58;94634.97;1788192;80;21042;-70
2022/03/30 07:23:25;;;;;;;21.83;12.17;;;;;;;12.36;37.78;94637.64;1788768;80;20998;-69
2022/03/30 07:25:52;;;;;;;26.30;13.90;;;;;;;12.40;37.37;94636.57;1788166;79;21062;-68
2022/03/30 07:28:19;;;;;;;31.70;15.30;;;;;;;12.44;38.15;94637.71;1788632;80;21038;-68
2022/03/30 07:30:48;;;;;;;34.67;16.63;;;;;;;12.41;37.54;94638.31;1788923;79;21007;-65
2022/03/30 07:33:16;;;;;;;32.07;15.47;;;;;;;12.46;38.13;94639.84;1788453;80;21098;-68
2022/03/30 07:35:48;;;;;;;40.53;17.93;;;;;;;12.54;38.12;94638.20;1788570;80;21015;-69
2022/03/30 07:38:17;;;;;;;22.40;13.70;;;;;;;12.53;36.79;94632.52;1788990;79;21014;-71
2022/03/30 07:40:45;;;;;;;20.40;12.60;;;;;;;12.54;37.55;94632.91;1788774;80;21033;-72
2022/03/30 07:43:14;;;;;;;18.37;12.17;;;;;;;12.45;36.15;94629.34;1788836;80;21026;-68
2022/03/30 07:45:42;;;;;;;22.87;14.30;;;;;;;12.43;36.45;94627.21;1788545;80;21524;-68
2022/03/30 07:48:09;;;;;;;25.27;15.13;;;;;;;12.42;36.52;94621.03;1788532;80;20979;-70
2022/03/30 07:50:36;;;;;;;17.03;12.20;;;;;;;12.42;37.06;94627.65;1788876;80;21508;-69
2022/03/30 07:53:04;;;;;;;20.20;11.43;;;;;;;12.48;36.52;94627.41;1788444;80;20991;-70
2022/03/30 07:55:30;;;;;;;16.17;11.50;;;;;;;12.60;36.47;94635.75;1788018;80;21002;-67
2022/03/30 07:57:57;;;;;;;18.27;12.60;;;;;;;12.75;35.04;94633.78;1789045;80;20971;-70
2022/03/30 08:00:23;;;;;;;15.67;10.37;;;;;;;12.90;35.16;94634.91;1789115;80;20960;-68
2022/03/30 08:02:50;;;;;;;15.20;11.23;;;;;;;13.04;33.87;94647.58;1789088;80;21058;-68
2022/03/30 08:05:17;;;;;;;27.90;15.70;;;;;;;13.13;33.79;94625.53;1758575;80;20987;-68
2022/03/30 08:07:49;;;;;;;18.73;11.60;;;;;;;13.32;34.38;94632.69;1789242;80;20963;-67
2022/03/30 08:10:14;;;;;;;14.73;9.40;;;;;;;13.48;33.60;94626.22;1789115;79;20980;-70
2022/03/30 08:12:41;;;;;;;19.47;11.97;;;;;;;13.59;33.10;94636.73;1789319;80;20999;-70
2022/03/30 08:15:09;;;;;;;19.60;11.77;;;;;;;13.80;34.50;94624.27;1789299;79;21074;-70
2022/03/30 08:17:37;;;;;;;17.77;11.73;;;;;;;14.01;33.58;94618.45;1789284;80;21026;-70
2022/03/30 08:20:04;;;;;;;17.70;12.30;;;;;;;14.14;32.64;94609.44;1789153;80;21014;-70
2022/03/30 08:22:31;;;;;;;19.32;11.78;;;;;;;14.21;32.47;94612.63;1789162;80;20987;-70
2022/03/30 08:25:10;;;;;;;20.52;11.85;;;;;;;14.30;32.59;94610.87;1789401;80;20998;-70
2022/03/30 08:27:37;;;;;;;22.22;11.60;;;;;;;14.43;32.84;94613.30;1789029;80;20987;-69
2022/03/30 08:30:07;;;;;;;16.62;12.35;;;;;;;14.60;32.61;94598.38;1789163;80;21015;-68
2022/03/30 08:32:34;;;;;;;20.62;14.20;;;;;;;14.80;32.41;94607.52;1789076;80;21484;-68
2022/03/30 08:35:04;;;;;;;21.33;13.18;;;;;;;14.91;32.68;94599.85;1782341;80;21019;-68
2022/03/30 08:37:30;;;;;;;15.95;11.28;;;;;;;14.98;30.97;94612.84;1780581;80;21461;-70
2022/03/30 08:39:58;;;;;;;17.40;11.53;;;;;;;15.04;31.22;94612.03;1780173;80;21165;-70
2022/03/30 08:42:24;;;;;;;19.42;11.85;;;;;;;15.08;31.28;94610.95;1780737;80;21476;-71
2022/03/30 08:44:51;;;;;;;13.43;10.38;;;;;;;15.02;31.01;94610.39;1780489;80;21023;-68
2022/03/30 08:47:18;;;;;;;17.57;11.22;;;;;;;14.86;30.65;94616.49;1780718;80;21022;-69
2022/03/30 08:49:47;;;;;;;16.48;10.32;;;;;;;14.93;31.40;94609.08;1780752;80;20991;-72
2022/03/30 08:52:13;;;;;;;19.60;12.15;;;;;;;15.02;31.20;94618.36;1780433;80;20994;-70
2022/03/30 08:54:46;;;;;;;17.07;8.78;;;;;;;15.22;31.65;94618.21;1780439;80;21076;-70
2022/03/30 08:57:14;;;;;;;11.57;8.33;;;;;;;15.30;30.28;94624.45;1780427;80;21465;-67
2022/03/30 09:00:07;;;;;;;15.40;11.22;;;;;;;15.27;30.81;94619.27;1780641;80;21015;-75
2022/03/30 09:02:40;;;;;;;13.55;10.15;;;;;;;15.32;30.79;94619.45;1780870;80;20987;-69
2022/03/30 09:05:22;;;;;;;14.65;9.93;;;;;;;15.26;31.22;94603.80;1780796;80;21135;-69
2022/03/30 09:07:52;;;;;;;16.67;11.57;;;;;;;15.23;31.20;94615.93;1780435;80;21478;-69
2022/03/30 09:10:22;;;;;;;16.17;10.10;;;;;;;15.30;31.13;94612.50;1780109;80;21592;-73
2022/03/30 09:12:52;;;;;;;18.82;10.00;;;;;;;15.48;31.33;94608.85;1768720;81;21049;-70
2022/03/30 09:15:21;;;;;;;15.28;11.00;;;;;;;15.68;30.61;94614.42;1757706;82;21026;-69
2022/03/30 09:17:49;;;;;;;14.78;10.38;;;;;;;15.59;30.49;94609.59;1768689;81;20984;-69
2022/03/30 09:20:20;;;;;;;24.32;13.22;;;;;;;15.66;30.26;94610.13;1769693;81;21055;-69
2022/03/30 09:22:50;;;;;;;16.82;10.38;;;;;;;15.84;31.38;94603.84;1769820;81;22253;-69
2022/03/30 09:25:18;;;;;;;16.62;10.68;;;;;;;15.95;30.22;94624.52;1737921;81;21024;-70
2022/03/30 09:27:46;;;;;;;16.95;11.43;;;;;;;15.88;30.49;94601.41;1770361;81;21027;-71
2022/03/30 09:30:16;;;;;;;17.70;11.12;;;;;;;16.06;30.65;94598.19;1770272;81;21042;-70
2022/03/30 09:32:47;;;;;;;23.05;14.65;;;;;;;16.33;30.23;94590.91;1770687;81;21023;-70
2022/03/30 09:35:31;;;;;;;15.58;10.85;;;;;;;16.03;30.40;94586.39;1770681;81;21031;-70
2022/03/30 09:38:11;;;;;;;15.93;9.15;;;;;;;16.28;30.42;94591.19;1770918;81;21015;-69
2022/03/30 09:40:40;;;;;;;15.18;10.90;;;;;;;16.11;29.07;94585.96;1769988;81;21016;-70
2022/03/30 09:43:28;;;;;;;16.67;10.48;;;;;;;16.21;30.18;94583.16;1770443;81;21055;-70
2022/03/30 09:46:09;;;;;;;19.35;11.85;;;;;;;16.26;28.94;94581.10;1770902;81;20996;-69
2022/03/30 09:48:56;;;;;;;15.28;10.32;;;;;;;16.69;29.47;94581.28;1771200;81;21047;-69
2022/03/30 09:51:24;;;;;;;16.57;9.70;;;;;;;16.89;28.47;94566.81;1768687;81;21078;-70
2022/03/30 09:53:52;;;;;;;13.68;9.40;;;;;;;17.35;28.30;94563.17;1770154;81;21043;-70
2022/03/30 09:56:23;;;;;;;15.68;9.58;;;;;;;17.25;27.76;94569.05;1770237;81;21066;-70
2022/03/30 09:58:59;;;;;;;18.82;10.95;;;;;;;16.96;28.03;94584.61;1770555;81;21024;-70
2022/03/30 10:01:29;;;;;;;14.28;8.98;;;;;;;16.39;28.70;94575.45;1770843;81;21092;-70
2022/03/30 10:04:01;;;;;;;10.60;7.17;;;;;;;16.43;28.89;94576.15;1770430;81;21023;-70
2022/03/30 10:06:40;;;;;;;11.80;8.08;;;;;;;16.34;28.51;94603.29;1770895;81;21039;-70
2022/03/30 10:09:05;;;;;;;14.33;9.18;;;;;;;16.04;29.04;94577.45;1770563;81;21541;-70
2022/03/30 10:11:32;;;;;;;14.65;10.10;;;;;;;15.90;29.59;94562.28;1770803;81;21064;-70
2022/03/30 10:14:03;;;;;;;15.55;10.15;;;;;;;16.09;29.44;94573.21;1771023;81;21047;-69
2022/03/30 10:16:30;;;;;;;17.35;9.65;;;;;;;16.51;29.72;94576.56;1770826;81;21007;-70
2022/03/30 10:18:58;;;;;;;12.23;9.43;;;;;;;16.72;29.01;94567.77;1770992;81;21015;-70
2022/03/30 10:21:39;;;;;;;107.45;14.43;;;;;;;16.67;28.25;94563.19;1771018;81;21000;-70
2022/03/30 10:24:17;;;;;;;15.68;9.73;;;;;;;16.55;28.18;94567.91;1770867;81;21589;-70
2022/03/30 10:27:09;;;;;;;13.95;8.30;;;;;;;16.26;28.72;94580.25;1771192;81;21079;-69
2022/03/30 10:29:37;;;;;;;14.13;9.13;;;;;;;16.05;29.51;94579.19;1770901;81;21055;-70
2022/03/30 10:32:23;;;;;;;12.80;8.45;;;;;;;16.20;29.29;94565.46;1771044;81;21015;-69
2022/03/30 10:35:10;;;;;;;19.32;8.95;;;;;;;16.19;29.01;94557.11;1770870;81;21533;-69
2022/03/30 10:37:47;;;;;;;14.20;10.32;;;;;;;16.43;29.03;94559.70;1770872;81;21062;-69
2022/03/30 10:40:22;;;;;;;16.93;9.98;;;;;;;16.62;29.42;94553.28;1768915;81;21071;-69
2022/03/30 10:43:00;;;;;;;16.73;9.75;;;;;;;16.71;28.50;94531.92;1771090;81;21538;-69
2022/03/30 10:45:40;;;;;;;12.03;8.33;;;;;;;16.93;29.00;94552.82;1771043;81;21469;-69
2022/03/30 10:48:21;;;;;;;17.70;9.48;;;;;;;17.01;28.53;94559.87;1770948;81;21522;-70
2022/03/30 10:50:56;;;;;;;17.45;10.23;;;;;;;17.04;29.51;94548.57;1770916;81;21015;-70
2022/03/30 10:53:38;;;;;;;21.95;11.45;;;;;;;17.17;28.60;94550.50;1770983;81;21028;-70
2022/03/30 10:56:21;;;;;;;15.35;9.80;;;;;;;17.24;28.61;94542.02;1770970;81;21091;-70
2022/03/30 10:58:56;;;;;;;16.02;11.18;;;;;;;17.69;28.12;94537.93;1770911;81;21035;-70
2022/03/30 11:01:32;;;;;;;14.13;10.28;;;;;;;17.60;27.78;94550.02;1771155;81;21019;-70
2022/03/30 11:04:19;;;;;;;18.23;10.20;;;;;;;17.03;28.05;94536.66;1770770;81;21027;-70
2022/03/30 11:07:01;;;;;;;14.95;10.32;;;;;;;16.76;28.29;94554.67;1770897;81;21527;-69
2022/03/30 11:09:32;;;;;;;14.83;9.80;;;;;;;16.87;29.84;94550.91;1771306;81;21513;-69
2022/03/30 11:12:13;;;;;;;17.62;9.45;;;;;;;16.84;28.47;94551.58;1771135;81;21126;-69
2022/03/30 11:14:44;;;;;;;20.85;12.07;;;;;;;16.47;28.88;94526.23;1771067;81;21023;-69
2022/03/30 11:17:15;;;;;;;17.02;10.82;;;;;;;16.99;28.96;94528.01;1770967;81;21465;-69
2022/03/30 11:19:57;;;;;;;22.30;11.73;;;;;;;16.94;28.35;94543.42;1767067;81;21035;-70
2022/03/30 11:33:23;;;;;;;18.95;11.38;;;;;;;17.61;27.41;94513.53;1820861;79;22588;-69
2022/03/30 11:35:52;;;;;;;17.07;11.65;;;;;;;17.71;27.75;94506.20;1794175;80;21093;-69
2022/03/30 11:38:27;;;;;;;18.67;13.13;;;;;;;18.08;27.57;94497.16;1794571;80;21001;-69
2022/03/30 11:41:09;;;;;;;18.67;10.80;;;;;;;18.15;27.54;94502.48;1793079;80;20999;-69
2022/03/30 11:55:05;;;;;;;21.97;12.58;;;;;;;19.46;25.83;94472.21;1802804;79;22674;-64
2022/03/30 11:57:42;;;;;;;20.08;11.83;;;;;;;19.35;25.17;94475.66;1763060;81;20992;-64
2022/03/30 12:00:11;;;;;;;67.45;13.88;;;;;;;18.99;25.80;94482.59;1762483;81;21051;-64
2022/03/30 12:02:45;;;;;;;21.10;12.93;;;;;;;18.97;25.88;94471.64;1762942;81;21015;-64